Terminal Aerodrome Forecast
Issued by NWS

Current Version | Previous Version | Graphics & Text | Print | Product List | Glossary On
Versions: 1 2 3 4 5 6 7 8 9 10 11 12 13 14 15 16 17 18 19 20 21 22 23 24
018
FTUS41 KRLX 121120
TAFCKB
TAF
KCKB 121120Z 1212/1312 24011G22KT P6SM OVC040
     FM121300 27012G24KT 3SM -SHSN OVC015
     FM121800 28013G26KT P6SM -SHSN BKN020 OVC030
     FM122200 29015G27KT 2SM -SHSN BLSN OVC012
     FM130500 30016G24KT P6SM OVC050=

USA.gov is the U.S. government's official web portal to all federal, state and local government web resources and services.